sensor_id;sensor_type;location;lat;lon;timestamp;pressure;altitude;pressure_sealevel;temperature;humidity
71948;BME280;63257;55.082;38.772;2023-02-20T00:01:48;97799.97;;;-3.18;66.67
71948;BME280;63257;55.082;38.772;2023-02-20T00:04:14;97794.94;;;-3.23;66.55
71948;BME280;63257;55.082;38.772;2023-02-20T00:06:40;97786.34;;;-3.24;67.15
71948;BME280;63257;55.082;38.772;2023-02-20T00:09:06;97788.78;;;-3.19;67.07
71948;BME280;63257;55.082;38.772;2023-02-20T00:11:31;97800.09;;;-3.23;67.19
71948;BME280;63257;55.082;38.772;2023-02-20T00:13:57;97778.31;;;-3.41;67.61
71948;BME280;63257;55.082;38.772;2023-02-20T00:16:23;97789.34;;;-3.36;67.38
71948;BME280;63257;55.082;38.772;2023-02-20T00:18:49;97801.25;;;-3.32;67.50
71948;BME280;63257;55.082;38.772;2023-02-20T00:21:15;97784.38;;;-3.42;67.74
71948;BME280;63257;55.082;38.772;2023-02-20T00:23:41;97796.38;;;-3.41;67.21
71948;BME280;63257;55.082;38.772;2023-02-20T00:26:11;97791.03;;;-3.35;67.60
71948;BME280;63257;55.082;38.772;2023-02-20T00:28:41;97791.84;;;-3.34;67.46
71948;BME280;63257;55.082;38.772;2023-02-20T00:31:15;97795.16;;;-3.29;68.06
71948;BME280;63257;55.082;38.772;2023-02-20T00:33:41;97789.03;;;-3.27;67.68
71948;BME280;63257;55.082;38.772;2023-02-20T00:36:13;97793.81;;;-3.14;67.40
71948;BME280;63257;55.082;38.772;2023-02-20T00:38:41;97778.03;;;-3.32;67.31
71948;BME280;63257;55.082;38.772;2023-02-20T00:41:08;97798.47;;;-3.26;67.42
71948;BME280;63257;55.082;38.772;2023-02-20T00:43:35;97792.31;;;-3.21;67.77
71948;BME280;63257;55.082;38.772;2023-02-20T00:46:03;97786.50;;;-3.28;68.05
71948;BME280;63257;55.082;38.772;2023-02-20T00:48:29;97773.84;;;-3.36;67.71
71948;BME280;63257;55.082;38.772;2023-02-20T00:51:15;97762.03;;;-3.43;67.95
71948;BME280;63257;55.082;38.772;2023-02-20T00:53:41;97787.91;;;-3.18;67.19
71948;BME280;63257;55.082;38.772;2023-02-20T00:56:08;97780.81;;;-3.11;67.07
71948;BME280;63257;55.082;38.772;2023-02-20T00:58:34;97788.53;;;-3.11;67.12
71948;BME280;63257;55.082;38.772;2023-02-20T01:01:00;97763.03;;;-3.20;67.06
71948;BME280;63257;55.082;38.772;2023-02-20T01:03:26;97780.84;;;-3.13;67.30
71948;BME280;63257;55.082;38.772;2023-02-20T01:05:51;97775.88;;;-3.19;67.15
71948;BME280;63257;55.082;38.772;2023-02-20T01:08:19;97774.00;;;-3.14;67.28
71948;BME280;63257;55.082;38.772;2023-02-20T01:10:45;97772.94;;;-3.08;67.02
71948;BME280;63257;55.082;38.772;2023-02-20T01:13:10;97758.50;;;-3.14;66.88
71948;BME280;63257;55.082;38.772;2023-02-20T01:15:36;97764.53;;;-3.13;67.05
71948;BME280;63257;55.082;38.772;2023-02-20T01:18:02;97773.41;;;-3.22;67.47
71948;BME280;63257;55.082;38.772;2023-02-20T01:20:30;97775.97;;;-3.22;67.81
71948;BME280;63257;55.082;38.772;2023-02-20T01:22:56;97771.91;;;-3.29;68.17
71948;BME280;63257;55.082;38.772;2023-02-20T01:25:22;97753.44;;;-3.44;67.86
71948;BME280;63257;55.082;38.772;2023-02-20T01:27:48;97779.06;;;-3.37;67.84
71948;BME280;63257;55.082;38.772;2023-02-20T01:30:17;97771.91;;;-3.29;68.21
71948;BME280;63257;55.082;38.772;2023-02-20T01:32:43;97761.75;;;-3.34;67.95
71948;BME280;63257;55.082;38.772;2023-02-20T01:35:09;97776.31;;;-3.33;67.71
71948;BME280;63257;55.082;38.772;2023-02-20T01:37:35;97758.22;;;-3.58;68.49
71948;BME280;63257;55.082;38.772;2023-02-20T01:40:02;97781.75;;;-3.41;68.31
71948;BME280;63257;55.082;38.772;2023-02-20T01:42:31;97776.16;;;-3.55;68.81
71948;BME280;63257;55.082;38.772;2023-02-20T01:47:53;97781.50;;;-3.89;69.88
71948;BME280;63257;55.082;38.772;2023-02-20T01:50:41;97779.84;;;-3.92;69.65
71948;BME280;63257;55.082;38.772;2023-02-20T01:53:15;97789.78;;;-4.10;70.16
71948;BME280;63257;55.082;38.772;2023-02-20T01:55:53;97787.41;;;-4.16;70.31
71948;BME280;63257;55.082;38.772;2023-02-20T01:58:23;97766.13;;;-4.22;70.35
71948;BME280;63257;55.082;38.772;2023-02-20T02:00:49;97787.41;;;-4.16;69.97
71948;BME280;63257;55.082;38.772;2023-02-20T02:03:19;97783.91;;;-4.13;70.10
71948;BME280;63257;55.082;38.772;2023-02-20T02:05:52;97782.34;;;-4.19;70.66
71948;BME280;63257;55.082;38.772;2023-02-20T02:08:20;97789.00;;;-4.12;70.56
71948;BME280;63257;55.082;38.772;2023-02-20T02:11:06;97770.06;;;-4.40;70.71
71948;BME280;63257;55.082;38.772;2023-02-20T02:13:37;97775.03;;;-4.34;70.85
71948;BME280;63257;55.082;38.772;2023-02-20T02:41:06;97801.28;;;-4.20;69.58
71948;BME280;63257;55.082;38.772;2023-02-20T02:44:06;97809.47;;;-4.07;69.63
71948;BME280;63257;55.082;38.772;2023-02-20T02:46:40;97816.53;;;-4.12;68.82
71948;BME280;63257;55.082;38.772;2023-02-20T02:51:41;97812.59;;;-4.26;69.60
71948;BME280;63257;55.082;38.772;2023-02-20T02:54:24;97786.63;;;-4.51;69.75
71948;BME280;63257;55.082;38.772;2023-02-20T02:57:14;97802.66;;;-4.39;70.60
71948;BME280;63257;55.082;38.772;2023-02-20T02:59:40;97813.66;;;-4.33;70.50
71948;BME280;63257;55.082;38.772;2023-02-20T03:02:12;97806.41;;;-4.51;69.72
71948;BME280;63257;55.082;38.772;2023-02-20T03:04:40;97805.63;;;-4.53;70.06
71948;BME280;63257;55.082;38.772;2023-02-20T03:07:14;97819.25;;;-4.50;70.12
71948;BME280;63257;55.082;38.772;2023-02-20T03:09:48;97811.00;;;-4.63;70.43
71948;BME280;63257;55.082;38.772;2023-02-20T03:12:18;97810.97;;;-4.61;70.67
71948;BME280;63257;55.082;38.772;2023-02-20T03:14:52;97823.66;;;-4.53;70.62
71948;BME280;63257;55.082;38.772;2023-02-20T03:17:55;97812.63;;;-4.58;70.85
71948;BME280;63257;55.082;38.772;2023-02-20T03:20:24;97805.25;;;-4.72;71.23
71948;BME280;63257;55.082;38.772;2023-02-20T03:22:54;97810.19;;;-4.65;70.76
71948;BME280;63257;55.082;38.772;2023-02-20T03:25:28;97813.22;;;-4.49;70.80
71948;BME280;63257;55.082;38.772;2023-02-20T03:27:59;97812.41;;;-4.19;70.16
71948;BME280;63257;55.082;38.772;2023-02-20T03:33:12;97820.44;;;-4.62;70.58
71948;BME280;63257;55.082;38.772;2023-02-20T03:36:01;97816.63;;;-4.48;70.75
71948;BME280;63257;55.082;38.772;2023-02-20T03:38:54;97819.59;;;-4.64;70.72
71948;BME280;63257;55.082;38.772;2023-02-20T03:41:42;97818.81;;;-4.67;71.23
71948;BME280;63257;55.082;38.772;2023-02-20T03:44:31;97822.28;;;-4.67;70.71
71948;BME280;63257;55.082;38.772;2023-02-20T03:47:00;97819.13;;;-4.78;70.53
71948;BME280;63257;55.082;38.772;2023-02-20T03:49:34;97818.72;;;-4.63;69.88
71948;BME280;63257;55.082;38.772;2023-02-20T03:52:02;97817.75;;;-4.58;70.02
71948;BME280;63257;55.082;38.772;2023-02-20T03:54:39;97820.44;;;-4.30;68.62
71948;BME280;63257;55.082;38.772;2023-02-20T03:57:09;97819.41;;;-4.23;68.59
71948;BME280;63257;55.082;38.772;2023-02-20T03:59:47;97823.00;;;-4.29;68.32
71948;BME280;63257;55.082;38.772;2023-02-20T04:02:21;97804.00;;;-4.57;68.59
71948;BME280;63257;55.082;38.772;2023-02-20T04:04:56;97823.50;;;-4.49;69.40
71948;BME280;63257;55.082;38.772;2023-02-20T04:07:32;97826.31;;;-4.58;69.42
71948;BME280;63257;55.082;38.772;2023-02-20T04:10:03;97822.28;;;-4.67;69.07
71948;BME280;63257;55.082;38.772;2023-02-20T04:12:36;97820.97;;;-4.83;69.52
71948;BME280;63257;55.082;38.772;2023-02-20T04:15:06;97813.34;;;-4.86;69.82
71948;BME280;63257;55.082;38.772;2023-02-20T04:17:45;97823.72;;;-4.91;70.21
71948;BME280;63257;55.082;38.772;2023-02-20T04:20:13;97831.13;;;-4.79;70.01
71948;BME280;63257;55.082;38.772;2023-02-20T04:22:48;97828.34;;;-4.69;69.44
71948;BME280;63257;55.082;38.772;2023-02-20T04:25:26;97812.44;;;-4.85;70.11
71948;BME280;63257;55.082;38.772;2023-02-20T04:27:56;97825.94;;;-4.77;69.82
71948;BME280;63257;55.082;38.772;2023-02-20T04:30:23;97808.88;;;-4.81;69.83
71948;BME280;63257;55.082;38.772;2023-02-20T04:32:49;97823.97;;;-4.66;69.70
71948;BME280;63257;55.082;38.772;2023-02-20T04:35:17;97833.63;;;-4.75;69.74
71948;BME280;63257;55.082;38.772;2023-02-20T04:37:44;97835.13;;;-4.67;69.96
71948;BME280;63257;55.082;38.772;2023-02-20T04:40:12;97809.31;;;-4.64;69.61
71948;BME280;63257;55.082;38.772;2023-02-20T04:42:38;97840.63;;;-4.46;68.89
71948;BME280;63257;55.082;38.772;2023-02-20T04:45:04;97830.72;;;-4.63;68.58
71948;BME280;63257;55.082;38.772;2023-02-20T04:47:30;97835.84;;;-4.60;68.83
71948;BME280;63257;55.082;38.772;2023-02-20T04:49:57;97838.69;;;-4.71;68.12
71948;BME280;63257;55.082;38.772;2023-02-20T04:52:25;97843.16;;;-4.79;68.00
71948;BME280;63257;55.082;38.772;2023-02-20T04:54:52;97836.53;;;-4.89;68.75
71948;BME280;63257;55.082;38.772;2023-02-20T04:57:18;97836.09;;;-5.05;69.03
71948;BME280;63257;55.082;38.772;2023-02-20T04:59:45;97822.50;;;-5.11;69.21
71948;BME280;63257;55.082;38.772;2023-02-20T05:02:11;97844.00;;;-5.13;69.28
71948;BME280;63257;55.082;38.772;2023-02-20T05:04:36;97848.22;;;-5.11;70.07
71948;BME280;63257;55.082;38.772;2023-02-20T05:07:02;97846.97;;;-4.94;69.60
71948;BME280;63257;55.082;38.772;2023-02-20T05:09:28;97853.38;;;-4.76;68.45
71948;BME280;63257;55.082;38.772;2023-02-20T05:11:54;97851.03;;;-4.85;68.93
71948;BME280;63257;55.082;38.772;2023-02-20T05:14:20;97852.81;;;-4.87;69.62
71948;BME280;63257;55.082;38.772;2023-02-20T05:16:47;97828.56;;;-4.79;69.34
71948;BME280;63257;55.082;38.772;2023-02-20T05:19:16;97857.66;;;-4.75;68.72
71948;BME280;63257;55.082;38.772;2023-02-20T05:21:46;97853.69;;;-4.54;69.29
71948;BME280;63257;55.082;38.772;2023-02-20T05:24:30;97852.44;;;-4.39;68.14
71948;BME280;63257;55.082;38.772;2023-02-20T05:26:56;97849.34;;;-4.52;67.30
71948;BME280;63257;55.082;38.772;2023-02-20T05:29:23;97852.84;;;-4.54;67.96
71948;BME280;63257;55.082;38.772;2023-02-20T05:31:49;97849.63;;;-4.63;67.34
71948;BME280;63257;55.082;38.772;2023-02-20T05:34:15;97861.72;;;-4.33;67.47
71948;BME280;63257;55.082;38.772;2023-02-20T05:36:41;97853.91;;;-4.63;67.32
71948;BME280;63257;55.082;38.772;2023-02-20T05:39:07;97847.56;;;-4.50;67.74
71948;BME280;63257;55.082;38.772;2023-02-20T05:41:33;97861.03;;;-4.40;67.10
71948;BME280;63257;55.082;38.772;2023-02-20T05:43:58;97854.47;;;-4.50;67.47
71948;BME280;63257;55.082;38.772;2023-02-20T05:46:25;97857.69;;;-4.42;67.45
71948;BME280;63257;55.082;38.772;2023-02-20T05:48:52;97839.66;;;-4.42;67.27
71948;BME280;63257;55.082;38.772;2023-02-20T05:51:29;97859.66;;;-4.52;67.15
71948;BME280;63257;55.082;38.772;2023-02-20T05:53:55;97858.13;;;-4.61;67.40
71948;BME280;63257;55.082;38.772;2023-02-20T05:56:21;97862.31;;;-4.56;67.91
71948;BME280;63257;55.082;38.772;2023-02-20T05:58:47;97858.88;;;-4.55;67.41
71948;BME280;63257;55.082;38.772;2023-02-20T06:01:21;97867.81;;;-4.36;66.99
71948;BME280;63257;55.082;38.772;2023-02-20T06:03:49;97860.16;;;-4.39;66.50
71948;BME280;63257;55.082;38.772;2023-02-20T06:06:16;97868.63;;;-4.34;66.67
71948;BME280;63257;55.082;38.772;2023-02-20T06:08:42;97852.94;;;-4.24;66.27
71948;BME280;63257;55.082;38.772;2023-02-20T06:11:10;97863.56;;;-4.05;66.02
71948;BME280;63257;55.082;38.772;2023-02-20T06:13:38;97865.19;;;-4.03;65.24
71948;BME280;63257;55.082;38.772;2023-02-20T06:16:04;97867.66;;;-3.98;65.80
71948;BME280;63257;55.082;38.772;2023-02-20T06:18:30;97842.09;;;-4.06;65.02
71948;BME280;63257;55.082;38.772;2023-02-20T06:20:56;97868.50;;;-3.98;64.24
71948;BME280;63257;55.082;38.772;2023-02-20T06:23:22;97873.91;;;-4.07;65.73
71948;BME280;63257;55.082;38.772;2023-02-20T06:25:48;97870.84;;;-3.88;65.22
71948;BME280;63257;55.082;38.772;2023-02-20T06:28:14;97866.69;;;-3.64;63.95
71948;BME280;63257;55.082;38.772;2023-02-20T06:30:40;97872.44;;;-3.54;63.67
71948;BME280;63257;55.082;38.772;2023-02-20T06:33:06;97873.81;;;-3.72;63.31
71948;BME280;63257;55.082;38.772;2023-02-20T06:35:32;97865.78;;;-3.93;63.99
71948;BME280;63257;55.082;38.772;2023-02-20T06:37:59;97875.13;;;-3.89;63.72
71948;BME280;63257;55.082;38.772;2023-02-20T06:40:25;97880.28;;;-3.89;63.57
71948;BME280;63257;55.082;38.772;2023-02-20T06:42:50;97876.97;;;-3.63;63.43
71948;BME280;63257;55.082;38.772;2023-02-20T06:45:16;97872.63;;;-3.61;62.58
71948;BME280;63257;55.082;38.772;2023-02-20T06:47:43;97872.50;;;-3.58;63.22
71948;BME280;63257;55.082;38.772;2023-02-20T06:50:09;97875.25;;;-3.94;63.52
71948;BME280;63257;55.082;38.772;2023-02-20T06:52:35;97879.69;;;-3.67;62.84
71948;BME280;63257;55.082;38.772;2023-02-20T06:55:01;97881.06;;;-3.55;62.86
71948;BME280;63257;55.082;38.772;2023-02-20T06:57:31;97855.88;;;-3.47;61.94
71948;BME280;63257;55.082;38.772;2023-02-20T06:59:57;97862.13;;;-3.26;61.22
71948;BME280;63257;55.082;38.772;2023-02-20T07:02:23;97875.72;;;-3.21;61.47
71948;BME280;63257;55.082;38.772;2023-02-20T07:04:49;97878.38;;;-3.22;61.10
71948;BME280;63257;55.082;38.772;2023-02-20T07:07:15;97883.16;;;-3.10;60.89
71948;BME280;63257;55.082;38.772;2023-02-20T07:09:53;97882.91;;;-3.31;60.98
71948;BME280;63257;55.082;38.772;2023-02-20T07:12:20;97876.94;;;-3.33;60.99
71948;BME280;63257;55.082;38.772;2023-02-20T07:14:49;97879.81;;;-3.72;62.20
71948;BME280;63257;55.082;38.772;2023-02-20T07:17:16;97877.63;;;-3.86;62.69
71948;BME280;63257;55.082;38.772;2023-02-20T07:19:41;97881.06;;;-3.85;62.97
71948;BME280;63257;55.082;38.772;2023-02-20T07:22:07;97883.19;;;-3.70;62.62
71948;BME280;63257;55.082;38.772;2023-02-20T07:24:34;97883.09;;;-3.97;63.20
71948;BME280;63257;55.082;38.772;2023-02-20T07:27:01;97883.19;;;-4.01;63.74
71948;BME280;63257;55.082;38.772;2023-02-20T07:29:27;97882.44;;;-4.05;64.25
71948;BME280;63257;55.082;38.772;2023-02-20T07:31:53;97888.09;;;-3.92;63.67
71948;BME280;63257;55.082;38.772;2023-02-20T07:34:19;97880.75;;;-3.75;63.17
71948;BME280;63257;55.082;38.772;2023-02-20T07:36:45;97883.13;;;-3.68;62.66
71948;BME280;63257;55.082;38.772;2023-02-20T07:39:12;97895.91;;;-3.64;62.76
71948;BME280;63257;55.082;38.772;2023-02-20T07:41:38;97897.31;;;-4.15;63.81
71948;BME280;63257;55.082;38.772;2023-02-20T07:44:05;97896.53;;;-4.18;63.36
71948;BME280;63257;55.082;38.772;2023-02-20T07:46:31;97896.63;;;-4.21;64.44
71948;BME280;63257;55.082;38.772;2023-02-20T07:49:03;97892.88;;;-4.10;64.04
71948;BME280;63257;55.082;38.772;2023-02-20T07:51:30;97897.69;;;-4.29;64.15
71948;BME280;63257;55.082;38.772;2023-02-20T07:53:56;97903.16;;;-4.43;64.34
71948;BME280;63257;55.082;38.772;2023-02-20T07:56:22;97904.91;;;-4.10;63.53
71948;BME280;63257;55.082;38.772;2023-02-20T07:58:50;97907.31;;;-3.72;62.60
71948;BME280;63257;55.082;38.772;2023-02-20T08:01:16;97894.66;;;-3.80;62.03
71948;BME280;63257;55.082;38.772;2023-02-20T08:03:42;97895.78;;;-3.90;62.22
71948;BME280;63257;55.082;38.772;2023-02-20T08:06:08;97895.44;;;-3.78;61.81
71948;BME280;63257;55.082;38.772;2023-02-20T08:08:34;97886.25;;;-4.18;62.25
71948;BME280;63257;55.082;38.772;2023-02-20T08:11:00;97891.41;;;-4.18;62.53
71948;BME280;63257;55.082;38.772;2023-02-20T08:13:26;97902.44;;;-4.13;62.89
71948;BME280;63257;55.082;38.772;2023-02-20T08:15:52;97903.84;;;-4.03;62.69
71948;BME280;63257;55.082;38.772;2023-02-20T08:18:18;97894.75;;;-4.15;62.58
71948;BME280;63257;55.082;38.772;2023-02-20T08:20:44;97909.75;;;-3.98;62.43
71948;BME280;63257;55.082;38.772;2023-02-20T08:23:19;97896.69;;;-3.92;61.91
71948;BME280;63257;55.082;38.772;2023-02-20T08:25:46;97913.13;;;-3.96;61.08
71948;BME280;63257;55.082;38.772;2023-02-20T08:28:12;97910.41;;;-4.22;62.14
71948;BME280;63257;55.082;38.772;2023-02-20T08:30:39;97908.38;;;-4.11;62.44
71948;BME280;63257;55.082;38.772;2023-02-20T08:33:06;97909.50;;;-3.88;61.31
71948;BME280;63257;55.082;38.772;2023-02-20T08:35:32;97883.84;;;-4.26;61.55
71948;BME280;63257;55.082;38.772;2023-02-20T08:40:50;97898.38;;;-3.90;60.53
71948;BME280;63257;55.082;38.772;2023-02-20T08:43:16;97912.22;;;-3.63;60.36
71948;BME280;63257;55.082;38.772;2023-02-20T08:45:42;97912.16;;;-3.92;60.75
71948;BME280;63257;55.082;38.772;2023-02-20T08:48:08;97915.03;;;-3.71;60.60
71948;BME280;63257;55.082;38.772;2023-02-20T08:50:34;97914.44;;;-3.51;59.33
71948;BME280;63257;55.082;38.772;2023-02-20T08:53:00;97904.50;;;-3.33;58.77
71948;BME280;63257;55.082;38.772;2023-02-20T08:55:27;97923.78;;;-3.17;58.94
71948;BME280;63257;55.082;38.772;2023-02-20T08:57:53;97919.47;;;-2.88;57.83
71948;BME280;63257;55.082;38.772;2023-02-20T09:00:20;97917.31;;;-3.02;57.27
71948;BME280;63257;55.082;38.772;2023-02-20T09:02:46;97916.97;;;-2.91;57.97
71948;BME280;63257;55.082;38.772;2023-02-20T09:05:13;97936.31;;;-2.76;56.55
71948;BME280;63257;55.082;38.772;2023-02-20T09:07:40;97941.72;;;-2.84;56.73
71948;BME280;63257;55.082;38.772;2023-02-20T09:10:06;97923.09;;;-2.40;56.18
71948;BME280;63257;55.082;38.772;2023-02-20T09:12:32;97907.16;;;-2.80;57.54
71948;BME280;63257;55.082;38.772;2023-02-20T09:14:58;97932.25;;;-2.57;56.48
71948;BME280;63257;55.082;38.772;2023-02-20T09:17:29;97928.25;;;-2.40;55.75
71948;BME280;63257;55.082;38.772;2023-02-20T09:19:55;97920.63;;;-2.70;57.26
71948;BME280;63257;55.082;38.772;2023-02-20T09:22:25;97924.47;;;-2.83;57.26
71948;BME280;63257;55.082;38.772;2023-02-20T09:24:52;97921.44;;;-2.69;57.47
71948;BME280;63257;55.082;38.772;2023-02-20T09:27:19;97928.38;;;-2.43;57.01
71948;BME280;63257;55.082;38.772;2023-02-20T09:29:46;97921.41;;;-2.41;55.91
71948;BME280;63257;55.082;38.772;2023-02-20T09:32:13;97920.63;;;-2.43;56.78
71948;BME280;63257;55.082;38.772;2023-02-20T09:34:39;97923.00;;;-2.37;56.18
71948;BME280;63257;55.082;38.772;2023-02-20T09:37:05;97922.56;;;-2.25;55.62
71948;BME280;63257;55.082;38.772;2023-02-20T09:39:33;97925.88;;;-2.46;55.65
71948;BME280;63257;55.082;38.772;2023-02-20T09:44:45;97899.25;;;-2.48;55.90
71948;BME280;63257;55.082;38.772;2023-02-20T09:50:02;97915.00;;;-2.56;55.76
71948;BME280;63257;55.082;38.772;2023-02-20T09:52:33;97911.66;;;-2.33;55.20
71948;BME280;63257;55.082;38.772;2023-02-20T09:55:07;97904.16;;;-2.41;55.31
71948;BME280;63257;55.082;38.772;2023-02-20T09:57:37;97915.41;;;-2.68;56.09
71948;BME280;63257;55.082;38.772;2023-02-20T10:00:05;97919.47;;;-2.34;55.83
71948;BME280;63257;55.082;38.772;2023-02-20T10:02:37;97916.28;;;-2.17;55.77
71948;BME280;63257;55.082;38.772;2023-02-20T10:05:18;97911.22;;;-2.46;55.25
71948;BME280;63257;55.082;38.772;2023-02-20T10:07:48;97921.56;;;-2.46;55.25
71948;BME280;63257;55.082;38.772;2023-02-20T10:10:32;97913.75;;;-2.44;55.11
71948;BME280;63257;55.082;38.772;2023-02-20T10:21:21;97921.75;;;-2.25;54.51
71948;BME280;63257;55.082;38.772;2023-02-20T10:24:00;97921.66;;;-2.49;54.48
71948;BME280;63257;55.082;38.772;2023-02-20T10:26:35;97926.03;;;-2.51;54.82
71948;BME280;63257;55.082;38.772;2023-02-20T10:29:17;97912.88;;;-2.70;55.36
71948;BME280;63257;55.082;38.772;2023-02-20T10:31:51;97926.03;;;-3.06;56.33
71948;BME280;63257;55.082;38.772;2023-02-20T10:34:27;97920.84;;;-2.78;56.61
71948;BME280;63257;55.082;38.772;2023-02-20T10:37:04;97920.13;;;-2.81;55.97
71948;BME280;63257;55.082;38.772;2023-02-20T10:39:33;97921.75;;;-2.52;56.16
71948;BME280;63257;55.082;38.772;2023-02-20T10:42:17;97923.00;;;-2.12;55.01
71948;BME280;63257;55.082;38.772;2023-02-20T10:45:12;97918.22;;;-2.23;54.91
71948;BME280;63257;55.082;38.772;2023-02-20T10:47:49;97915.81;;;-2.03;54.89
71948;BME280;63257;55.082;38.772;2023-02-20T10:50:45;97927.44;;;-2.96;55.96
71948;BME280;63257;55.082;38.772;2023-02-20T10:55:53;97903.53;;;-3.02;57.26
71948;BME280;63257;55.082;38.772;2023-02-20T11:01:02;97920.06;;;-3.08;57.95
71948;BME280;63257;55.082;38.772;2023-02-20T11:03:44;97929.91;;;-2.91;57.57
71948;BME280;63257;55.082;38.772;2023-02-20T11:06:16;97923.56;;;-3.11;57.59
71948;BME280;63257;55.082;38.772;2023-02-20T11:08:44;97927.16;;;-2.86;57.81
71948;BME280;63257;55.082;38.772;2023-02-20T11:11:33;97931.72;;;-2.95;57.58
71948;BME280;63257;55.082;38.772;2023-02-20T11:14:04;97926.97;;;-2.80;56.79
71948;BME280;63257;55.082;38.772;2023-02-20T11:16:56;97933.47;;;-2.95;57.35
71948;BME280;63257;55.082;38.772;2023-02-20T11:21:56;97925.16;;;-3.05;56.49
71948;BME280;63257;55.082;38.772;2023-02-20T11:27:00;97938.44;;;-3.19;57.14
71948;BME280;63257;55.082;38.772;2023-02-20T11:32:38;97939.28;;;-2.88;56.97
71948;BME280;63257;55.082;38.772;2023-02-20T11:35:21;97919.50;;;-3.46;58.21
71948;BME280;63257;55.082;38.772;2023-02-20T11:40:39;97945.88;;;-3.08;57.26
71948;BME280;63257;55.082;38.772;2023-02-20T11:43:26;97941.63;;;-3.39;57.72
71948;BME280;63257;55.082;38.772;2023-02-20T11:48:57;97942.63;;;-3.43;58.52
71948;BME280;63257;55.082;38.772;2023-02-20T11:54:21;97937.72;;;-3.52;58.38
71948;BME280;63257;55.082;38.772;2023-02-20T11:57:28;97945.59;;;-3.57;59.34
71948;BME280;63257;55.082;38.772;2023-02-20T12:00:15;97949.63;;;-3.48;58.93
71948;BME280;63257;55.082;38.772;2023-02-20T12:05:21;97946.13;;;-3.77;60.55
71948;BME280;63257;55.082;38.772;2023-02-20T12:10:42;97950.41;;;-3.76;60.00
71948;BME280;63257;55.082;38.772;2023-02-20T12:13:13;97960.72;;;-3.76;59.99
71948;BME280;63257;55.082;38.772;2023-02-20T12:15:40;97944.69;;;-3.56;58.88
71948;BME280;63257;55.082;38.772;2023-02-20T12:20:38;97938.78;;;-3.60;58.32
71948;BME280;63257;55.082;38.772;2023-02-20T12:30:05;97950.75;;;-3.88;58.86
71948;BME280;63257;55.082;38.772;2023-02-20T12:37:33;97967.44;;;-4.03;59.09
71948;BME280;63257;55.082;38.772;2023-02-20T12:40:26;97973.53;;;-4.06;59.09
71948;BME280;63257;55.082;38.772;2023-02-20T13:01:48;97981.34;;;-4.44;59.12
71948;BME280;63257;55.082;38.772;2023-02-20T13:07:15;97981.00;;;-4.30;59.73
71948;BME280;63257;55.082;38.772;2023-02-20T13:12:17;97979.31;;;-4.31;58.73
71948;BME280;63257;55.082;38.772;2023-02-20T13:18:06;97979.47;;;-4.38;59.44
71948;BME280;63257;55.082;38.772;2023-02-20T13:20:47;97980.22;;;-4.33;59.36
71948;BME280;63257;55.082;38.772;2023-02-20T13:25:44;97988.56;;;-4.23;59.35
71948;BME280;63257;55.082;38.772;2023-02-20T13:31:20;97991.81;;;-4.51;60.03
71948;BME280;63257;55.082;38.772;2023-02-20T13:34:22;97990.41;;;-4.65;60.92
71948;BME280;63257;55.082;38.772;2023-02-20T13:36:44;97982.69;;;-4.65;60.99
71948;BME280;63257;55.082;38.772;2023-02-20T13:39:34;97980.34;;;-4.75;60.81
71948;BME280;63257;55.082;38.772;2023-02-20T13:42:02;97991.50;;;-4.75;61.09
71948;BME280;63257;55.082;38.772;2023-02-20T13:49:57;98003.50;;;-4.74;62.13
71948;BME280;63257;55.082;38.772;2023-02-20T13:52:40;97991.53;;;-4.77;62.36
71948;BME280;63257;55.082;38.772;2023-02-20T13:57:47;97994.84;;;-4.71;62.81
71948;BME280;63257;55.082;38.772;2023-02-20T14:00:42;97970.09;;;-4.77;60.74
71948;BME280;63257;55.082;38.772;2023-02-20T14:03:40;98004.78;;;-4.94;61.66
71948;BME280;63257;55.082;38.772;2023-02-20T14:08:38;97996.81;;;-4.83;59.85
71948;BME280;63257;55.082;38.772;2023-02-20T14:11:26;97984.94;;;-4.88;60.29
71948;BME280;63257;55.082;38.772;2023-02-20T14:13:54;97979.38;;;-5.09;61.30
71948;BME280;63257;55.082;38.772;2023-02-20T14:16:30;97984.09;;;-4.89;61.28
71948;BME280;63257;55.082;38.772;2023-02-20T14:19:01;97986.91;;;-5.00;60.58
71948;BME280;63257;55.082;38.772;2023-02-20T14:21:28;97984.78;;;-5.21;60.71
71948;BME280;63257;55.082;38.772;2023-02-20T14:23:54;97985.63;;;-5.19;61.71
71948;BME280;63257;55.082;38.772;2023-02-20T14:26:30;97992.66;;;-5.29;61.25
71948;BME280;63257;55.082;38.772;2023-02-20T14:28:58;97993.25;;;-5.16;62.30
71948;BME280;63257;55.082;38.772;2023-02-20T14:31:34;97975.38;;;-5.22;62.10
71948;BME280;63257;55.082;38.772;2023-02-20T14:34:08;97996.34;;;-5.00;61.71
71948;BME280;63257;55.082;38.772;2023-02-20T14:37:00;98001.78;;;-5.14;62.20
71948;BME280;63257;55.082;38.772;2023-02-20T14:42:30;97971.69;;;-5.11;62.37
71948;BME280;63257;55.082;38.772;2023-02-20T14:45:01;98006.81;;;-5.08;62.97
71948;BME280;63257;55.082;38.772;2023-02-20T14:47:29;97998.22;;;-5.07;63.24
71948;BME280;63257;55.082;38.772;2023-02-20T14:50:16;98009.81;;;-5.30;64.43
71948;BME280;63257;55.082;38.772;2023-02-20T14:52:41;98012.25;;;-5.22;64.68
71948;BME280;63257;55.082;38.772;2023-02-20T14:55:15;98000.38;;;-5.28;65.26
71948;BME280;63257;55.082;38.772;2023-02-20T14:57:42;98002.59;;;-5.12;65.08
71948;BME280;63257;55.082;38.772;2023-02-20T15:00:24;97991.75;;;-5.26;65.21
71948;BME280;63257;55.082;38.772;2023-02-20T15:02:53;97989.44;;;-5.39;64.98
71948;BME280;63257;55.082;38.772;2023-02-20T15:05:32;97995.75;;;-5.55;64.82
71948;BME280;63257;55.082;38.772;2023-02-20T15:08:13;98012.09;;;-5.58;64.97
71948;BME280;63257;55.082;38.772;2023-02-20T15:10:49;98013.41;;;-5.82;64.34
71948;BME280;63257;55.082;38.772;2023-02-20T15:13:24;98024.44;;;-5.75;64.31
71948;BME280;63257;55.082;38.772;2023-02-20T15:16:07;98017.38;;;-5.66;63.81
71948;BME280;63257;55.082;38.772;2023-02-20T15:18:43;98014.97;;;-5.75;62.96
71948;BME280;63257;55.082;38.772;2023-02-20T15:21:14;98009.78;;;-5.72;62.05
71948;BME280;63257;55.082;38.772;2023-02-20T15:23:42;98018.63;;;-5.88;62.03
71948;BME280;63257;55.082;38.772;2023-02-20T15:31:37;98017.41;;;-5.67;61.06
71948;BME280;63257;55.082;38.772;2023-02-20T15:34:23;98010.81;;;-5.81;61.21